createdAt,value
2022-08-18T00:01:28.754Z,23.10
2022-08-18T00:04:03.554Z,23.40
2022-08-18T00:06:44.626Z,23.40
2022-08-18T00:09:13.400Z,23.50
2022-08-18T00:11:56.551Z,23.40
2022-08-18T00:14:23.556Z,23.30
2022-08-18T00:16:53.089Z,23.00
2022-08-18T00:19:46.802Z,22.90
2022-08-18T00:22:16.112Z,22.90
2022-08-18T00:24:49.842Z,23.00
2022-08-18T00:27:28.519Z,23.10
2022-08-18T00:30:06.002Z,23.00
2022-08-18T00:33:14.462Z,23.00
2022-08-18T00:35:52.228Z,23.00
2022-08-18T00:38:24.481Z,23.00
2022-08-18T00:40:54.577Z,23.00
2022-08-18T00:43:45.844Z,23.10
2022-08-18T00:46:32.491Z,23.00
2022-08-18T00:49:03.782Z,23.00
2022-08-18T00:51:50.466Z,22.80
2022-08-18T00:54:54.790Z,22.70
2022-08-18T00:57:25.001Z,22.70
2022-08-18T01:00:04.439Z,22.70
2022-08-18T01:02:42.632Z,22.60
2022-08-18T01:05:14.963Z,22.70
2022-08-18T01:07:48.911Z,22.70
2022-08-18T01:10:23.145Z,22.80
2022-08-18T01:12:58.771Z,22.80
2022-08-18T01:15:30.529Z,22.90
2022-08-18T01:18:31.609Z,23.10
2022-08-18T01:21:37.986Z,23.30
2022-08-18T01:24:22.564Z,23.50
2022-08-18T01:26:50.996Z,23.50
2022-08-18T01:29:20.186Z,23.50
2022-08-18T01:32:01.505Z,23.60
2022-08-18T01:34:31.135Z,23.50
2022-08-18T01:37:05.431Z,23.40
2022-08-18T01:40:59.588Z,23.10
2022-08-18T01:42:26.692Z,22.80
2022-08-18T01:44:55.401Z,22.70
2022-08-18T01:47:48.444Z,22.80
2022-08-18T01:50:19.519Z,22.80
2022-08-18T01:52:49.986Z,22.90
2022-08-18T01:55:21.509Z,22.90
2022-08-18T01:57:51.927Z,22.90
2022-08-18T02:00:19.956Z,22.80
2022-08-18T02:03:01.608Z,22.80
2022-08-18T02:05:45.145Z,22.40
2022-08-18T02:08:17.943Z,21.70
2022-08-18T02:10:47.962Z,21.30
2022-08-18T02:13:18.401Z,21.10
2022-08-18T02:15:47.774Z,21.10
2022-08-18T02:18:43.541Z,21.20
2022-08-18T02:21:14.730Z,21.40
2022-08-18T02:23:53.640Z,21.50
2022-08-18T02:26:28.087Z,21.60
2022-08-18T02:28:56.490Z,21.70
2022-08-18T02:31:27.006Z,21.60
2022-08-18T02:33:59.535Z,21.70
2022-08-18T02:36:29.398Z,21.60
2022-08-18T02:39:00.057Z,21.60
2022-08-18T02:41:32.537Z,21.60
2022-08-18T02:44:00.216Z,21.40
2022-08-18T02:46:31.349Z,21.40
2022-08-18T02:49:03.402Z,21.30
2022-08-18T02:51:39.426Z,21.20
2022-08-18T02:54:11.820Z,20.90
2022-08-18T02:56:42.358Z,20.50
2022-08-18T02:59:15.786Z,20.30
2022-08-18T03:01:52.837Z,20.30
2022-08-18T03:04:30.593Z,20.40
2022-08-18T03:07:03.051Z,20.10
2022-08-18T03:09:34.116Z,19.90
2022-08-18T03:12:14.161Z,19.80
2022-08-18T03:14:43.940Z,19.90
2022-08-18T03:17:17.940Z,19.90
2022-08-18T03:19:49.367Z,19.90
2022-08-18T03:22:28.578Z,19.80
2022-08-18T03:24:59.320Z,19.70
2022-08-18T03:27:27.978Z,19.80
2022-08-18T03:29:56.700Z,19.80
2022-08-18T03:32:28.116Z,20.00
2022-08-18T03:34:56.946Z,20.00
2022-08-18T03:37:27.297Z,20.00
2022-08-18T03:39:58.447Z,19.90
2022-08-18T03:42:27.830Z,19.80
2022-08-18T03:44:56.643Z,19.70
2022-08-18T03:47:25.219Z,19.70
2022-08-18T03:50:02.844Z,19.70
2022-08-18T03:52:30.705Z,19.80
2022-08-18T03:55:00.816Z,19.90
2022-08-18T03:57:38.409Z,19.90
2022-08-18T04:00:12.946Z,20.00
2022-08-18T04:02:40.820Z,20.00
2022-08-18T04:05:14.745Z,19.90
2022-08-18T04:07:43.117Z,20.00
2022-08-18T04:10:19.204Z,20.00
2022-08-18T04:12:48.115Z,20.00
2022-08-18T04:15:18.224Z,20.00
2022-08-18T04:18:03.548Z,20.00
2022-08-18T04:20:36.861Z,20.00
2022-08-18T04:23:08.185Z,20.10
2022-08-18T04:25:35.812Z,20.10
2022-08-18T04:28:04.054Z,20.20
2022-08-18T04:30:33.015Z,20.40
2022-08-18T04:33:02.606Z,20.40
2022-08-18T04:35:31.414Z,20.50
2022-08-18T04:38:01.177Z,20.60
2022-08-18T04:40:31.941Z,20.70
2022-08-18T04:43:04.104Z,20.80
2022-08-18T04:45:33.564Z,21.00
2022-08-18T04:48:05.650Z,21.10
2022-08-18T04:50:38.443Z,21.40
2022-08-18T04:53:25.350Z,21.90
2022-08-18T04:55:55.023Z,22.50
2022-08-18T04:58:33.420Z,23.10
2022-08-18T05:01:02.408Z,23.30
2022-08-18T05:03:34.910Z,23.10
2022-08-18T05:06:07.732Z,23.00
2022-08-18T05:08:36.426Z,23.20
2022-08-18T05:11:05.231Z,23.50
2022-08-18T05:13:36.569Z,23.30
2022-08-18T05:16:11.147Z,23.10
2022-08-18T05:18:43.300Z,22.90
2022-08-18T05:21:16.966Z,22.80
2022-08-18T05:23:48.562Z,22.80
2022-08-18T05:26:20.662Z,23.10
2022-08-18T05:28:49.902Z,23.40
2022-08-18T05:31:32.577Z,23.40
2022-08-18T05:34:06.940Z,23.80
2022-08-18T05:37:03.735Z,24.30
2022-08-18T05:40:10.376Z,24.30
2022-08-18T05:42:47.985Z,24.40
2022-08-18T05:45:18.940Z,24.50
2022-08-18T05:47:48.558Z,24.70
2022-08-18T05:50:20.921Z,24.80
2022-08-18T05:53:05.576Z,25.20
2022-08-18T05:56:25.671Z,25.70
2022-08-18T05:58:55.935Z,26.20
2022-08-18T06:01:30.945Z,26.70
2022-08-18T06:04:22.035Z,27.00
2022-08-18T06:06:52.335Z,27.40
2022-08-18T06:09:37.841Z,27.60
2022-08-18T06:12:17.489Z,27.70
2022-08-18T06:14:45.740Z,27.70
2022-08-18T06:17:40.219Z,27.50
2022-08-18T06:20:56.275Z,27.90
2022-08-18T06:23:45.064Z,28.20
2022-08-18T06:26:26.300Z,28.40
2022-08-18T06:29:13.316Z,28.40
2022-08-18T06:32:10.423Z,28.50
2022-08-18T06:34:57.100Z,28.50
2022-08-18T06:38:10.098Z,28.50
2022-08-18T06:40:38.749Z,28.70
2022-08-18T06:43:22.226Z,28.80
2022-08-18T06:45:52.666Z,28.80
2022-08-18T06:48:53.090Z,28.80
2022-08-18T06:51:27.505Z,28.80
2022-08-18T06:54:08.385Z,28.80
2022-08-18T06:56:43.286Z,28.60
2022-08-18T06:59:31.451Z,28.30
2022-08-18T07:02:31.501Z,28.30
2022-08-18T07:05:29.022Z,28.80
2022-08-18T07:08:20.095Z,29.20
2022-08-18T07:10:51.830Z,29.60
2022-08-18T07:13:33.157Z,30.00
2022-08-18T07:16:40.563Z,30.30
2022-08-18T07:19:24.802Z,30.50
2022-08-18T07:22:09.421Z,30.60
2022-08-18T07:24:51.750Z,30.70
2022-08-18T07:27:48.144Z,30.70
2022-08-18T07:30:54.630Z,31.00
2022-08-18T07:33:31.146Z,31.30
2022-08-18T07:36:10.325Z,31.50
2022-08-18T07:39:04.019Z,31.50
2022-08-18T07:41:41.959Z,31.70
2022-08-18T07:44:22.850Z,31.80
2022-08-18T07:47:01.294Z,32.00
2022-08-18T07:49:37.054Z,32.00
2022-08-18T07:52:43.834Z,31.90
2022-08-18T07:55:38.735Z,32.20
2022-08-18T07:58:43.380Z,31.80
2022-08-18T08:01:35.265Z,31.20
2022-08-18T08:04:41.209Z,30.80
2022-08-18T08:07:28.980Z,31.30
2022-08-18T08:10:27.459Z,31.90
2022-08-18T08:13:55.382Z,31.90
2022-08-18T08:16:31.950Z,31.70
2022-08-18T08:19:42.529Z,31.40
2022-08-18T08:22:36.164Z,31.30
2022-08-18T08:25:45.811Z,31.70
2022-08-18T08:28:55.576Z,32.60
2022-08-18T08:31:58.119Z,33.30
2022-08-18T08:35:05.114Z,33.90
2022-08-18T08:38:36.708Z,34.00
2022-08-18T08:41:16.679Z,34.50
2022-08-18T08:44:06.716Z,34.80
2022-08-18T08:47:02.841Z,35.10
2022-08-18T08:50:00.760Z,35.30
2022-08-18T08:52:56.849Z,35.40
2022-08-18T08:55:29.574Z,35.40
2022-08-18T08:58:17.669Z,35.40
2022-08-18T09:00:58.850Z,35.60
2022-08-18T09:04:03.551Z,35.70
2022-08-18T09:07:09.085Z,35.80
2022-08-18T09:10:30.124Z,35.90
2022-08-18T09:13:30.444Z,36.30
2022-08-18T09:16:37.015Z,36.20
2022-08-18T09:19:41.305Z,36.50
2022-08-18T09:22:10.985Z,36.60
2022-08-18T09:24:58.520Z,36.60
2022-08-18T09:28:10.306Z,36.40
2022-08-18T09:31:19.443Z,36.50
2022-08-18T09:34:31.421Z,36.40
2022-08-18T09:37:41.455Z,36.40
2022-08-18T09:41:01.870Z,36.30
2022-08-18T09:43:55.881Z,36.00
2022-08-18T09:46:44.757Z,35.90
2022-08-18T09:49:27.207Z,35.50
2022-08-18T09:52:03.222Z,35.50
2022-08-18T09:54:48.895Z,35.70
2022-08-18T09:57:21.685Z,36.00
2022-08-18T10:00:15.572Z,36.10
2022-08-18T10:02:49.589Z,36.20
2022-08-18T10:05:32.191Z,36.10
2022-08-18T10:08:29.969Z,36.10
2022-08-18T10:11:39.535Z,35.80
2022-08-18T10:14:28.396Z,36.00
2022-08-18T10:20:28.275Z,36.10
2022-08-18T10:22:58.000Z,36.00
2022-08-18T10:25:49.424Z,36.00
2022-08-18T10:29:07.040Z,36.20
2022-08-18T10:32:00.006Z,36.40
2022-08-18T10:34:52.197Z,36.40
2022-08-18T10:37:32.739Z,36.50
2022-08-18T10:46:34.988Z,36.20
2022-08-18T10:49:25.738Z,35.60
2022-08-18T10:52:24.405Z,35.30
2022-08-18T10:55:12.996Z,35.00
2022-08-18T10:58:19.969Z,34.90
2022-08-18T11:01:13.340Z,35.20
2022-08-18T11:04:32.729Z,35.10
2022-08-18T11:07:30.880Z,35.10
2022-08-18T11:13:25.610Z,35.50
2022-08-18T11:16:04.790Z,35.60
2022-08-18T11:19:09.850Z,35.50
2022-08-18T11:24:43.853Z,35.20
2022-08-18T11:27:24.234Z,35.20
2022-08-18T11:29:55.394Z,35.20
2022-08-18T11:32:41.858Z,35.10
2022-08-18T11:35:32.159Z,35.10
2022-08-18T11:41:48.091Z,35.20
2022-08-18T11:44:37.625Z,35.20
2022-08-18T11:47:27.930Z,35.30
2022-08-18T11:50:13.368Z,35.40
2022-08-18T11:52:54.749Z,35.50
2022-08-18T11:55:36.988Z,35.50
2022-08-18T11:58:12.680Z,35.50
2022-08-18T12:00:54.964Z,35.50
2022-08-18T12:03:51.458Z,35.40
2022-08-18T12:06:26.605Z,35.30
2022-08-18T12:09:09.453Z,35.20
2022-08-18T12:11:52.298Z,35.20
2022-08-18T12:14:35.526Z,35.30
2022-08-18T12:17:11.187Z,35.20
2022-08-18T12:19:46.843Z,35.30
2022-08-18T12:22:23.684Z,35.30
2022-08-18T12:24:59.214Z,35.20
2022-08-18T12:27:34.004Z,35.20
2022-08-18T12:30:16.468Z,35.20
2022-08-18T12:33:00.867Z,35.20
2022-08-18T12:35:35.241Z,35.20
2022-08-18T12:38:12.298Z,35.10
2022-08-18T12:40:43.138Z,35.20
2022-08-18T12:43:15.550Z,35.20
2022-08-18T12:45:48.942Z,35.10
2022-08-18T12:48:16.607Z,34.90
2022-08-18T12:50:54.147Z,34.80
2022-08-18T12:53:29.497Z,34.70
2022-08-18T12:59:12.521Z,34.60
2022-08-18T13:01:50.282Z,34.40
2022-08-18T13:04:29.141Z,34.40
2022-08-18T13:07:13.070Z,34.40
2022-08-18T13:09:53.843Z,34.50
2022-08-18T13:12:27.381Z,34.50
2022-08-18T13:15:04.143Z,34.60
2022-08-18T13:17:41.539Z,34.70
2022-08-18T13:20:20.945Z,34.70
2022-08-18T13:22:51.803Z,34.70
2022-08-18T13:25:38.388Z,34.80
2022-08-18T13:28:17.045Z,34.70
2022-08-18T13:30:55.581Z,34.80
2022-08-18T13:33:57.393Z,34.80
2022-08-18T13:36:24.397Z,34.80
2022-08-18T13:38:59.871Z,34.80
2022-08-18T13:41:32.555Z,34.80
2022-08-18T13:44:01.507Z,34.80
2022-08-18T13:46:31.684Z,34.80
2022-08-18T13:49:03.593Z,34.80
2022-08-18T13:51:32.614Z,34.70
2022-08-18T13:54:30.454Z,34.70
2022-08-18T13:56:52.372Z,34.60
2022-08-18T13:59:25.046Z,34.60
2022-08-18T14:01:54.488Z,34.50
2022-08-18T14:04:27.723Z,34.40
2022-08-18T14:07:10.943Z,34.30
2022-08-18T14:09:42.313Z,34.10
2022-08-18T14:12:33.661Z,33.80
2022-08-18T14:15:02.729Z,33.20
2022-08-18T14:17:32.530Z,32.10
2022-08-18T14:20:21.672Z,31.00
2022-08-18T14:23:12.760Z,30.20
2022-08-18T14:26:03.279Z,29.60
2022-08-18T14:28:43.394Z,29.00
2022-08-18T14:31:20.554Z,28.30
2022-08-18T14:33:53.489Z,27.70
2022-08-18T14:36:30.087Z,27.30
2022-08-18T14:39:04.529Z,26.90
2022-08-18T14:41:32.564Z,26.20
2022-08-18T14:44:13.180Z,25.50
2022-08-18T14:46:52.118Z,25.30
2022-08-18T14:49:29.297Z,24.40
2022-08-18T14:52:00.372Z,23.90
2022-08-18T14:54:30.111Z,23.20
2022-08-18T14:57:08.028Z,22.70
2022-08-18T14:59:39.139Z,22.60
2022-08-18T15:02:13.234Z,22.60
2022-08-18T15:04:55.866Z,22.70
2022-08-18T15:07:27.585Z,22.60
2022-08-18T15:10:14.463Z,22.70
2022-08-18T15:12:44.990Z,22.90
2022-08-18T15:15:22.556Z,23.30
2022-08-18T15:17:53.058Z,23.60
2022-08-18T15:20:29.114Z,23.90
2022-08-18T15:23:25.020Z,24.10
2022-08-18T15:26:00.304Z,24.30
2022-08-18T15:28:37.883Z,24.60
2022-08-18T15:31:17.705Z,24.80
2022-08-18T15:33:51.514Z,25.00
2022-08-18T15:36:29.169Z,25.20
2022-08-18T15:39:02.099Z,25.30
2022-08-18T15:41:44.675Z,25.30
2022-08-18T15:44:15.357Z,25.30
2022-08-18T15:46:51.224Z,25.30
2022-08-18T15:49:23.418Z,25.30
2022-08-18T15:51:50.892Z,25.20
2022-08-18T15:54:23.715Z,25.40
2022-08-18T15:56:58.222Z,25.50
2022-08-18T15:59:40.027Z,25.50
2022-08-18T16:02:11.727Z,25.50
2022-08-18T16:04:53.478Z,25.50
2022-08-18T16:07:39.915Z,25.50
2022-08-18T16:10:20.854Z,25.40
2022-08-18T16:12:50.014Z,25.40
2022-08-18T16:15:27.719Z,25.40
2022-08-18T16:17:57.286Z,25.40
2022-08-18T16:20:33.578Z,25.40
2022-08-18T16:23:06.026Z,25.20
2022-08-18T16:25:39.836Z,25.20
2022-08-18T16:28:08.337Z,25.20
2022-08-18T16:30:36.968Z,25.20
2022-08-18T16:33:07.407Z,25.10
2022-08-18T16:35:37.449Z,24.70
2022-08-18T16:38:11.229Z,23.80
2022-08-18T16:40:49.834Z,23.40
2022-08-18T16:43:25.874Z,23.20
2022-08-18T16:45:55.959Z,23.10
2022-08-18T16:50:58.055Z,22.90
2022-08-18T16:53:27.956Z,22.50
2022-08-18T16:56:18.140Z,22.60
2022-08-18T16:59:07.138Z,22.90
2022-08-18T17:01:59.833Z,23.20
2022-08-18T17:04:36.156Z,23.40
2022-08-18T17:07:13.608Z,23.60
2022-08-18T17:09:43.280Z,23.70
2022-08-18T17:12:12.923Z,23.60
2022-08-18T17:14:41.602Z,23.70
2022-08-18T17:17:10.046Z,23.70
2022-08-18T17:19:40.077Z,23.40
2022-08-18T17:22:17.155Z,23.10
2022-08-18T17:24:50.491Z,22.80
2022-08-18T17:27:37.255Z,22.70
2022-08-18T17:30:17.785Z,22.40
2022-08-18T17:33:04.767Z,22.20
2022-08-18T17:35:39.026Z,22.20
2022-08-18T17:38:36.868Z,22.40
2022-08-18T17:41:14.568Z,22.60
2022-08-18T17:46:49.518Z,22.70
2022-08-18T17:49:54.230Z,22.40
2022-08-18T17:53:02.034Z,22.50
2022-08-18T17:55:41.889Z,22.60
2022-08-18T17:58:40.936Z,22.60
2022-08-18T18:01:15.552Z,22.70
2022-08-18T18:03:46.350Z,22.70
2022-08-18T18:06:33.995Z,22.70
2022-08-18T18:09:33.722Z,22.70
2022-08-18T18:12:29.389Z,22.70
2022-08-18T18:15:08.264Z,22.60
2022-08-18T18:17:42.400Z,22.50
2022-08-18T18:20:46.197Z,22.40
2022-08-18T18:23:23.004Z,22.30
2022-08-18T18:25:52.400Z,22.30
2022-08-18T18:28:33.800Z,22.20
2022-08-18T18:31:29.474Z,22.10
2022-08-18T18:34:04.310Z,22.10
2022-08-18T18:36:47.750Z,22.00
2022-08-18T18:39:34.392Z,21.70
2022-08-18T18:42:30.049Z,21.70
2022-08-18T18:45:09.596Z,21.80
2022-08-18T18:48:07.246Z,21.80
2022-08-18T18:50:59.953Z,21.80
2022-08-18T18:54:06.587Z,21.70
2022-08-18T18:57:12.672Z,21.50
2022-08-18T19:00:25.989Z,21.30
2022-08-18T19:03:25.746Z,21.10
2022-08-18T19:06:33.475Z,21.10
2022-08-18T19:09:30.601Z,21.10
2022-08-18T19:12:23.146Z,21.30
2022-08-18T19:15:17.721Z,21.30
2022-08-18T19:17:52.041Z,21.40
2022-08-18T19:20:28.843Z,21.40
2022-08-18T19:23:44.563Z,21.20
2022-08-18T19:26:28.346Z,21.10
2022-08-18T19:29:12.294Z,21.20
2022-08-18T19:32:03.194Z,21.30
2022-08-18T19:34:37.306Z,21.30
2022-08-18T19:37:40.400Z,21.30
2022-08-18T19:40:37.262Z,21.30
2022-08-18T19:43:32.041Z,21.30
2022-08-18T19:46:13.427Z,21.20
2022-08-18T19:49:12.237Z,21.10
2022-08-18T19:51:42.606Z,21.00
2022-08-18T19:54:45.001Z,20.90
2022-08-18T19:57:43.721Z,20.90
2022-08-18T20:00:31.622Z,20.50
2022-08-18T20:03:34.106Z,20.60
2022-08-18T20:06:47.362Z,20.60
2022-08-18T20:09:52.126Z,20.60
2022-08-18T20:12:40.981Z,20.50
2022-08-18T20:15:25.496Z,20.60
2022-08-18T20:18:03.511Z,20.60
2022-08-18T20:20:42.116Z,20.60
2022-08-18T20:24:02.390Z,20.40
2022-08-18T20:26:43.092Z,20.30
2022-08-18T20:29:39.261Z,20.10
2022-08-18T20:32:34.610Z,20.10
2022-08-18T20:35:27.968Z,19.90
2022-08-18T20:38:31.901Z,20.10
2022-08-18T20:41:21.760Z,20.20
2022-08-18T20:44:00.420Z,20.10
2022-08-18T20:46:41.382Z,20.10
2022-08-18T20:49:49.601Z,20.00
2022-08-18T20:52:47.521Z,20.00
2022-08-18T20:55:37.587Z,19.90
2022-08-18T20:58:19.871Z,19.80
2022-08-18T21:00:55.966Z,19.90
2022-08-18T21:03:44.780Z,19.90
2022-08-18T21:06:19.166Z,20.00
2022-08-18T21:08:55.114Z,20.00
2022-08-18T21:11:32.138Z,20.20
2022-08-18T21:14:04.005Z,20.20
2022-08-18T21:16:57.805Z,20.20
2022-08-18T21:19:29.181Z,19.90
2022-08-18T21:22:11.120Z,19.70
2022-08-18T21:24:44.779Z,19.60
2022-08-18T21:27:31.686Z,19.50
2022-08-18T21:30:07.546Z,19.20
2022-08-18T21:32:37.374Z,19.20
2022-08-18T21:35:39.844Z,19.00
2022-08-18T21:38:16.685Z,19.00
2022-08-18T21:40:48.079Z,18.90
2022-08-18T21:47:07.029Z,19.20
2022-08-18T21:49:35.519Z,19.30
2022-08-18T21:52:05.220Z,19.40
2022-08-18T21:54:34.825Z,19.50
2022-08-18T21:57:47.958Z,19.60
2022-08-18T22:00:37.456Z,19.70
2022-08-18T22:03:29.993Z,19.70
2022-08-18T22:06:33.501Z,19.60
2022-08-18T22:09:35.684Z,19.70
2022-08-18T22:13:04.898Z,19.50
2022-08-18T22:15:49.962Z,19.30
2022-08-18T22:18:41.118Z,19.00
2022-08-18T22:21:44.343Z,18.60
2022-08-18T22:24:36.843Z,18.40
2022-08-18T22:27:23.983Z,18.40
2022-08-18T22:30:06.598Z,18.40
2022-08-18T22:32:46.266Z,18.30
2022-08-18T22:35:14.979Z,18.40
2022-08-18T22:37:50.611Z,18.50
2022-08-18T22:40:21.606Z,18.50
2022-08-18T22:42:57.998Z,18.50
2022-08-18T22:45:25.062Z,18.50
2022-08-18T22:47:53.378Z,18.50
2022-08-18T22:50:25.068Z,18.50
2022-08-18T22:52:53.959Z,18.70
2022-08-18T22:55:30.044Z,18.70
2022-08-18T22:57:59.663Z,18.70
2022-08-18T23:00:30.608Z,18.60
2022-08-18T23:02:59.748Z,18.70
2022-08-18T23:05:31.072Z,18.60
2022-08-18T23:08:00.439Z,18.60
2022-08-18T23:10:30.141Z,18.50
2022-08-18T23:13:04.078Z,18.40
2022-08-18T23:16:30.942Z,18.30
2022-08-18T23:18:50.003Z,18.40
2022-08-18T23:21:34.923Z,18.50
2022-08-18T23:24:09.382Z,18.50
2022-08-18T23:26:37.178Z,18.40
2022-08-18T23:29:10.423Z,18.30
2022-08-18T23:31:44.253Z,18.20
2022-08-18T23:34:19.084Z,18.20
2022-08-18T23:37:01.238Z,18.20
2022-08-18T23:39:32.324Z,18.20
2022-08-18T23:42:02.236Z,18.20
2022-08-18T23:44:30.254Z,18.20
2022-08-18T23:47:01.123Z,18.20
2022-08-18T23:49:30.593Z,18.20
2022-08-18T23:52:08.221Z,18.10
2022-08-18T23:54:36.088Z,18.10
2022-08-18T23:57:08.093Z,18.10
2022-08-18T23:59:35.183Z,18.10
